Time;durP1;ratioP1;P1;durP2;ratioP2;P2;SDS_P1;SDS_P2;PMS_P1;PMS_P2;Temp;Humidity;BMP_temperature;BMP_pressure;BME280_temperature;BME280_humidity;BME280_pressure;Samples;Min_cycle;Max_cycle;Signal;HPM_P1;HPM_P2
2022/03/15 00:00:39;;;;;;;12.25;3.90;;;;;;;7.31;76.54;102804.16;5094487;28;20501;-68
2022/03/15 00:03:04;;;;;;;17.90;4.47;;;;;;;7.32;76.63;102810.09;5076373;28;20030;-68
2022/03/15 00:05:30;;;;;;;19.90;4.70;;;;;;;7.36;76.74;102802.03;5076231;28;20017;-68
2022/03/15 00:07:56;;;;;;;12.07;4.30;;;;;;;7.36;76.91;102793.50;5094932;28;20024;-69
2022/03/15 00:10:22;;;;;;;14.40;4.78;;;;;;;7.22;77.07;102802.25;5077613;28;20110;-68
2022/03/15 00:12:47;;;;;;;13.80;4.50;;;;;;;7.10;77.27;102801.41;5077402;28;20379;-68
2022/03/15 00:15:13;;;;;;;15.38;4.78;;;;;;;7.12;78.15;102799.56;5095617;28;20062;-67
2022/03/15 00:17:41;;;;;;;16.95;5.82;;;;;;;7.10;77.80;102796.25;5096278;28;20020;-67
2022/03/15 00:20:09;;;;;;;12.57;4.78;;;;;;;7.19;77.74;102795.59;5078056;28;20484;-67
2022/03/15 00:22:35;;;;;;;20.58;5.43;;;;;;;7.18;77.93;102796.50;5096059;28;20109;-67
2022/03/15 00:25:03;;;;;;;17.27;5.50;;;;;;;7.19;77.62;102785.31;5077827;28;20438;-67
2022/03/15 00:27:28;;;;;;;15.65;4.55;;;;;;;7.22;77.45;102797.09;5095494;28;20024;-67
2022/03/15 00:29:54;;;;;;;15.10;5.40;;;;;;;7.18;77.17;102793.13;5095432;28;20039;-68
2022/03/15 00:32:19;;;;;;;13.85;4.93;;;;;;;7.10;77.91;102790.31;5077225;28;20367;-68
2022/03/15 00:34:47;;;;;;;17.55;5.13;;;;;;;7.03;78.33;102795.09;5077548;28;20031;-67
2022/03/15 00:37:13;;;;;;;16.08;5.55;;;;;;;6.96;78.63;102787.03;5095954;28;20028;-69
2022/03/15 00:39:38;;;;;;;14.77;4.90;;;;;;;6.97;78.79;102783.53;5077822;28;20032;-66
2022/03/15 00:42:04;;;;;;;16.05;5.53;;;;;;;7.04;78.51;102783.88;5095867;28;20407;-67
2022/03/15 00:44:29;;;;;;;18.27;5.72;;;;;;;6.95;79.00;102782.00;5095629;28;20036;-67
2022/03/15 00:46:54;;;;;;;15.10;5.75;;;;;;;6.89;79.20;102777.31;5095732;28;20027;-66
2022/03/15 00:49:20;;;;;;;12.77;5.05;;;;;;;6.85;78.97;102778.44;5095683;28;20071;-66
2022/03/15 00:51:45;;;;;;;16.65;5.40;;;;;;;6.95;78.75;102777.66;5095712;28;20020;-67
2022/03/15 00:54:10;;;;;;;19.45;5.50;;;;;;;6.92;79.09;102780.47;5077300;28;20065;-67
2022/03/15 00:56:36;;;;;;;16.67;5.45;;;;;;;6.88;79.04;102773.94;5095487;28;20145;-67
2022/03/15 00:59:01;;;;;;;12.15;5.03;;;;;;;6.74;79.97;102774.13;5077280;28;20031;-66
2022/03/15 01:01:26;;;;;;;15.32;5.03;;;;;;;6.74;79.63;102769.81;5095482;28;20023;-67
2022/03/15 01:03:52;;;;;;;19.10;5.72;;;;;;;6.77;79.99;102774.72;5077142;28;20034;-67
2022/03/15 01:06:17;;;;;;;20.98;5.80;;;;;;;6.88;79.41;102761.06;5095280;28;20520;-67
2022/03/15 01:08:42;;;;;;;17.92;6.25;;;;;;;6.79;79.34;102756.63;5095111;28;20058;-67
2022/03/15 01:11:08;;;;;;;15.55;5.75;;;;;;;6.91;79.34;102755.72;5095276;28;20457;-67
2022/03/15 01:13:34;;;;;;;14.35;6.68;;;;;;;6.93;79.63;102766.69;5095252;28;20085;-67
2022/03/15 01:15:59;;;;;;;22.27;6.50;;;;;;;6.87;79.21;102763.75;5095244;28;20021;-67
2022/03/15 01:18:25;;;;;;;15.50;5.75;;;;;;;6.80;80.04;102763.41;5095060;28;20058;-68
2022/03/15 01:20:51;;;;;;;15.43;5.82;;;;;;;6.62;80.38;102763.00;5094943;28;20040;-67
2022/03/15 01:23:17;;;;;;;13.05;5.70;;;;;;;6.41;81.62;102738.88;5095002;28;20031;-70
2022/03/15 01:25:42;;;;;;;16.52;6.07;;;;;;;6.40;81.36;102755.22;5094990;28;20380;-67
2022/03/15 01:28:08;;;;;;;15.52;5.50;;;;;;;6.41;80.99;102752.53;5094904;28;20068;-67
2022/03/15 01:30:34;;;;;;;18.13;5.70;;;;;;;6.33;81.28;102753.09;5076755;28;20054;-68
2022/03/15 01:32:59;;;;;;;20.35;6.65;;;;;;;6.45;80.81;102745.44;5094894;28;20102;-67
2022/03/15 01:35:25;;;;;;;16.73;5.95;;;;;;;6.61;80.24;102742.53;5094810;28;20077;-67
2022/03/15 01:37:50;;;;;;;20.38;5.43;;;;;;;6.53;79.57;102730.25;5076621;28;20066;-67
2022/03/15 01:40:15;;;;;;;20.52;6.00;;;;;;;6.50;79.80;102731.31;5076453;28;20020;-67
2022/03/15 01:42:41;;;;;;;18.17;5.30;;;;;;;6.36;80.45;102722.97;5094623;28;20110;-67
2022/03/15 01:45:07;;;;;;;15.95;5.70;;;;;;;6.45;80.19;102733.41;5094630;28;20035;-67
2022/03/15 01:47:33;;;;;;;14.23;5.43;;;;;;;6.36;80.75;102728.94;5076356;28;20390;-68
2022/03/15 01:49:59;;;;;;;14.07;5.03;;;;;;;6.29;80.27;102732.88;5076250;28;20048;-67
2022/03/15 01:52:25;;;;;;;13.02;5.10;;;;;;;6.17;80.67;102729.44;5094455;28;20020;-68
2022/03/15 01:54:50;;;;;;;20.88;5.82;;;;;;;6.15;81.16;102735.59;5094587;28;20050;-67
2022/03/15 01:57:16;;;;;;;17.45;5.40;;;;;;;6.11;81.05;102727.31;5094456;28;20024;-66
2022/03/15 01:59:42;;;;;;;19.45;5.30;;;;;;;6.08;81.16;102727.53;5094289;28;20028;-67
2022/03/15 02:02:08;;;;;;;16.45;5.60;;;;;;;6.07;81.70;102713.03;5094247;28;20028;-67
2022/03/15 02:04:37;;;;;;;17.77;6.78;;;;;;;6.13;80.60;102704.94;5094329;28;20028;-67
2022/03/15 02:07:04;;;;;;;13.05;5.22;;;;;;;6.13;80.72;102722.91;5094174;28;20027;-66
2022/03/15 02:09:29;;;;;;;13.77;5.10;;;;;;;6.09;81.43;102724.03;5075938;28;20028;-67
2022/03/15 02:11:55;;;;;;;15.48;5.32;;;;;;;6.06;81.29;102716.56;5093952;28;20027;-67
2022/03/15 02:14:21;;;;;;;12.55;5.53;;;;;;;6.08;81.16;102723.22;5094068;28;20102;-67
2022/03/15 02:16:47;;;;;;;11.63;5.07;;;;;;;6.16;81.34;102725.25;5094105;28;20107;-67
2022/03/15 02:19:12;;;;;;;14.27;5.40;;;;;;;6.09;81.05;102719.72;5093562;28;20063;-67
2022/03/15 02:21:38;;;;;;;15.38;5.32;;;;;;;6.09;80.78;102712.00;5075814;28;20028;-66
2022/03/15 02:24:04;;;;;;;13.27;5.90;;;;;;;6.05;80.87;102712.34;5075622;28;20020;-67
2022/03/15 02:26:30;;;;;;;11.75;5.30;;;;;;;6.10;81.20;102703.41;5075633;28;20513;-67
2022/03/15 02:28:55;;;;;;;13.55;5.32;;;;;;;6.19;80.66;102701.91;5093770;28;20015;-67
2022/03/15 02:31:21;;;;;;;20.25;5.80;;;;;;;6.07;81.14;102708.75;5075664;28;20059;-67
2022/03/15 02:33:47;;;;;;;16.88;6.03;;;;;;;5.95;81.67;102699.34;5093710;28;20428;-67
2022/03/15 02:36:12;;;;;;;14.35;5.88;;;;;;;5.93;81.89;102700.34;5093653;28;20383;-67
2022/03/15 02:38:37;;;;;;;14.02;5.53;;;;;;;5.98;82.03;102694.00;5093671;28;20024;-68
2022/03/15 02:41:03;;;;;;;16.00;5.30;;;;;;;5.96;81.83;102697.63;5093565;28;20356;-66
2022/03/15 02:43:28;;;;;;;18.02;5.63;;;;;;;5.98;81.62;102695.75;5093479;28;20035;-67
2022/03/15 02:45:53;;;;;;;13.38;5.35;;;;;;;6.01;81.54;102687.81;5075272;28;20064;-68
2022/03/15 02:48:19;;;;;;;17.20;6.35;;;;;;;6.09;81.23;102685.53;5075069;28;20388;-67
2022/03/15 02:50:44;;;;;;;13.65;5.53;;;;;;;6.03;81.97;102678.28;5075346;28;20447;-67
2022/03/15 02:53:09;;;;;;;17.23;5.63;;;;;;;6.10;81.62;102680.28;5093467;28;20016;-67
2022/03/15 02:55:35;;;;;;;19.48;6.00;;;;;;;6.13;81.19;102675.84;5093314;28;20016;-67
2022/03/15 02:58:00;;;;;;;16.13;6.00;;;;;;;6.17;81.62;102680.66;5075135;28;20418;-67
2022/03/15 03:00:27;;;;;;;15.43;5.75;;;;;;;6.18;81.38;102677.16;5093280;28;20604;-67
2022/03/15 03:02:53;;;;;;;14.43;5.70;;;;;;;6.14;81.57;102673.19;5075166;28;20024;-67
2022/03/15 03:05:18;;;;;;;12.60;5.53;;;;;;;6.25;81.69;102667.28;5075005;28;20026;-67
2022/03/15 03:07:45;;;;;;;18.05;6.63;;;;;;;6.27;81.30;102663.66;5093189;28;20035;-67
2022/03/15 03:10:12;;;;;;;15.45;5.82;;;;;;;6.31;81.42;102664.25;5093222;28;20473;-67
2022/03/15 03:12:41;;;;;;;13.77;5.82;;;;;;;6.21;81.13;102658.97;5093100;28;20020;-67
2022/03/15 03:15:11;;;;;;;16.02;5.65;;;;;;;6.25;81.15;102657.81;5093186;28;20093;-66
2022/03/15 03:17:40;;;;;;;17.38;5.70;;;;;;;6.24;81.17;102657.91;5074998;28;20027;-68
2022/03/15 03:20:09;;;;;;;17.55;6.30;;;;;;;6.29;81.56;102653.28;5093036;28;20031;-67
2022/03/15 03:22:36;;;;;;;14.70;5.63;;;;;;;6.47;80.65;102659.63;5093014;28;20107;-67
2022/03/15 03:25:02;;;;;;;14.40;6.13;;;;;;;6.39;80.61;102666.25;5092955;28;20471;-67
2022/03/15 03:27:28;;;;;;;14.02;5.50;;;;;;;6.31;81.17;102671.97;5092965;28;20027;-66
2022/03/15 03:29:56;;;;;;;16.00;6.07;;;;;;;6.22;81.23;102670.88;5092948;28;20032;-67
2022/03/15 03:32:21;;;;;;;19.58;5.78;;;;;;;6.20;81.67;102667.59;5094760;28;20020;-66
2022/03/15 03:34:46;;;;;;;18.15;5.90;;;;;;;6.30;82.40;102672.88;5078946;28;20034;-66
2022/03/15 03:37:12;;;;;;;16.23;6.13;;;;;;;6.27;81.88;102667.97;5078945;28;20107;-66
2022/03/15 03:39:37;;;;;;;17.70;6.45;;;;;;;6.29;81.13;102663.53;5096967;28;20351;-67
2022/03/15 03:42:04;;;;;;;16.30;6.32;;;;;;;6.14;81.97;102662.09;5096941;28;20024;-67
2022/03/15 03:44:29;;;;;;;16.38;6.35;;;;;;;6.05;82.03;102661.84;5078598;28;20111;-66
2022/03/15 03:46:54;;;;;;;20.00;6.40;;;;;;;6.13;82.25;102663.84;5096968;28;20067;-67
2022/03/15 03:49:20;;;;;;;19.27;7.40;;;;;;;6.11;82.17;102660.56;5096686;28;20494;-66
2022/03/15 03:51:45;;;;;;;20.40;6.40;;;;;;;6.15;82.33;102661.16;5096939;28;20509;-66
2022/03/15 03:54:10;;;;;;;18.25;6.85;;;;;;;6.18;81.86;102663.50;5078660;28;20123;-67
2022/03/15 03:56:35;;;;;;;20.25;7.05;;;;;;;6.15;82.18;102654.28;5078563;28;20024;-67
2022/03/15 03:59:01;;;;;;;16.73;7.00;;;;;;;6.26;81.91;102668.91;5096699;28;20467;-66
2022/03/15 04:01:26;;;;;;;19.17;7.50;;;;;;;6.08;82.37;102659.03;5078530;28;20035;-66
2022/03/15 04:03:53;;;;;;;16.73;7.20;;;;;;;5.94;82.41;102660.97;5078208;28;20619;-66
2022/03/15 04:06:18;;;;;;;16.58;7.28;;;;;;;5.79;83.40;102668.81;5096553;28;20390;-66
2022/03/15 04:08:46;;;;;;;21.60;7.78;;;;;;;5.83;83.65;102657.38;5096502;28;20024;-67
2022/03/15 04:11:12;;;;;;;16.55;8.60;;;;;;;5.87;82.93;102665.72;5078328;28;20497;-66
2022/03/15 04:13:40;;;;;;;20.33;8.32;;;;;;;5.92;83.13;102665.34;5096357;28;20169;-66
2022/03/15 04:16:06;;;;;;;27.10;8.40;;;;;;;6.00;82.76;102663.91;5096479;28;20027;-66
2022/03/15 04:18:32;;;;;;;22.13;7.80;;;;;;;5.99;82.43;102664.84;5078079;28;20024;-65
2022/03/15 04:20:57;;;;;;;16.60;8.07;;;;;;;5.99;82.69;102664.84;5078108;28;20398;-66
2022/03/15 04:23:22;;;;;;;20.83;8.50;;;;;;;5.78;83.16;102667.19;5096227;28;20024;-66
2022/03/15 04:25:49;;;;;;;21.60;8.02;;;;;;;5.88;83.84;102657.88;5096071;28;20364;-67
2022/03/15 04:28:14;;;;;;;17.05;8.07;;;;;;;5.95;83.55;102657.47;5077929;28;20024;-67
2022/03/15 04:30:39;;;;;;;24.05;9.13;;;;;;;5.94;83.45;102655.84;5078190;28;20091;-66
2022/03/15 04:33:05;;;;;;;24.65;8.52;;;;;;;6.02;83.31;102661.25;5096095;28;20028;-67
2022/03/15 04:35:30;;;;;;;18.17;7.95;;;;;;;6.04;83.06;102656.81;5095964;28;20492;-66
2022/03/15 04:37:56;;;;;;;22.15;8.80;;;;;;;6.11;83.02;102652.88;5077829;28;20024;-66
2022/03/15 04:40:21;;;;;;;20.55;8.85;;;;;;;6.13;83.04;102652.75;5078056;28;20383;-66
2022/03/15 04:42:48;;;;;;;22.50;9.32;;;;;;;6.10;82.77;102649.50;5095272;28;20360;-66
2022/03/15 04:45:14;;;;;;;20.60;9.20;;;;;;;6.05;83.41;102651.56;5095714;28;20028;-67
2022/03/15 04:47:39;;;;;;;17.92;8.75;;;;;;;6.04;83.04;102651.66;5095675;28;20032;-68
2022/03/15 04:50:06;;;;;;;21.05;8.75;;;;;;;6.05;83.37;102648.19;5095650;28;20044;-66
2022/03/15 04:52:34;;;;;;;15.98;8.48;;;;;;;5.98;83.31;102649.53;5077480;28;20212;-66
2022/03/15 04:54:59;;;;;;;19.45;8.20;;;;;;;6.13;82.98;102640.75;5095674;28;20041;-67
2022/03/15 04:57:24;;;;;;;20.95;9.63;;;;;;;5.99;83.16;102639.19;5095573;28;20097;-67
2022/03/15 04:59:50;;;;;;;19.30;8.82;;;;;;;5.93;83.75;102637.06;5077371;28;20039;-67
2022/03/15 05:02:15;;;;;;;19.02;8.68;;;;;;;5.96;84.06;102631.72;5077367;28;20024;-67
2022/03/15 05:04:40;;;;;;;24.05;9.18;;;;;;;6.06;83.84;102634.41;5095343;28;20133;-67
2022/03/15 05:07:06;;;;;;;22.27;8.88;;;;;;;6.08;83.08;102633.38;5095468;28;20024;-67
2022/03/15 05:09:31;;;;;;;28.73;10.05;;;;;;;6.00;83.77;102633.13;5095319;28;20471;-67
2022/03/15 05:11:56;;;;;;;20.48;9.43;;;;;;;6.18;83.49;102630.94;5077065;28;20028;-67
2022/03/15 05:14:21;;;;;;;26.73;10.23;;;;;;;6.15;82.99;102597.00;5095264;28;20047;-67
2022/03/15 05:16:47;;;;;;;28.30;9.40;;;;;;;6.09;83.46;102629.06;5095133;28;20020;-67
2022/03/15 05:19:12;;;;;;;21.42;9.25;;;;;;;6.08;83.20;102628.25;5077001;28;20028;-67
2022/03/15 05:21:38;;;;;;;22.58;9.85;;;;;;;6.03;83.70;102619.25;5095065;28;20479;-67
2022/03/15 05:24:04;;;;;;;20.90;9.88;;;;;;;6.03;83.50;102625.19;5077023;28;20055;-67
2022/03/15 05:26:29;;;;;;;24.50;9.68;;;;;;;5.96;84.54;102621.44;5076816;28;20049;-67
2022/03/15 05:28:54;;;;;;;25.42;11.38;;;;;;;5.96;84.31;102623.19;5094927;28;20035;-67
2022/03/15 05:31:22;;;;;;;22.77;10.00;;;;;;;5.92;84.25;102622.56;5094916;28;20024;-66
2022/03/15 05:33:48;;;;;;;27.38;11.88;;;;;;;6.03;84.58;102621.81;5094891;28;20471;-67
2022/03/15 05:36:14;;;;;;;20.67;10.38;;;;;;;5.76;84.79;102620.28;5076798;28;20069;-67
2022/03/15 05:38:43;;;;;;;24.50;10.55;;;;;;;5.86;84.92;102623.00;5094707;28;20032;-67
2022/03/15 05:41:08;;;;;;;20.15;10.10;;;;;;;5.81;85.06;102620.78;5094832;28;20035;-68
2022/03/15 05:43:37;;;;;;;23.35;11.13;;;;;;;5.97;84.78;102619.69;5094706;28;20027;-69
2022/03/15 05:46:03;;;;;;;21.55;11.18;;;;;;;6.01;84.46;102616.81;5094676;28;20024;-67
2022/03/15 05:48:28;;;;;;;23.95;10.95;;;;;;;6.10;84.45;102616.13;5094373;28;20521;-67
2022/03/15 05:50:54;;;;;;;24.55;10.82;;;;;;;6.00;84.25;102620.28;5094538;28;20024;-67
2022/03/15 05:53:19;;;;;;;25.20;11.15;;;;;;;5.96;84.99;102615.50;5094457;28;20027;-68
2022/03/15 05:55:44;;;;;;;23.98;11.48;;;;;;;5.87;84.94;102614.38;5093567;28;20124;-68
2022/03/15 05:58:10;;;;;;;27.00;11.05;;;;;;;6.04;84.60;102602.91;5094390;28;20560;-67
2022/03/15 06:00:35;;;;;;;24.15;12.02;;;;;;;6.02;84.43;102602.22;5094327;28;20191;-68
2022/03/15 06:03:01;;;;;;;21.80;11.25;;;;;;;6.00;84.75;102596.38;5076103;28;20020;-67
2022/03/15 06:05:27;;;;;;;23.27;11.75;;;;;;;6.13;84.41;102588.56;5075331;28;20119;-68
2022/03/15 06:07:53;;;;;;;24.92;11.82;;;;;;;6.25;84.04;102590.25;5093446;28;20027;-67
2022/03/15 06:10:22;;;;;;;25.42;11.98;;;;;;;6.25;83.81;102593.63;5075812;28;20027;-66
2022/03/15 06:12:49;;;;;;;27.75;12.23;;;;;;;6.29;83.85;102589.09;5092863;28;20028;-67
2022/03/15 06:15:14;;;;;;;24.70;11.77;;;;;;;6.19;84.18;102586.38;5093689;28;20024;-67
2022/03/15 06:18:00;;;;;;;23.65;11.65;;;;;;;6.31;84.15;102582.91;5093555;28;20023;-67
2022/03/15 06:20:26;;;;;;;24.48;12.20;;;;;;;6.25;83.89;102587.69;5092021;28;20020;-67
2022/03/15 06:22:52;;;;;;;24.90;11.15;;;;;;;6.35;84.11;102588.63;5074979;28;20092;-67
2022/03/15 06:25:18;;;;;;;25.48;12.10;;;;;;;6.40;83.97;102583.16;5093650;28;20031;-67
2022/03/15 06:27:44;;;;;;;25.63;11.45;;;;;;;6.56;82.80;102586.22;5092493;28;20020;-67
2022/03/15 06:30:11;;;;;;;21.58;10.88;;;;;;;6.52;82.86;102587.34;5092594;28;20028;-67
2022/03/15 06:32:36;;;;;;;26.52;11.05;;;;;;;6.47;82.95;102592.00;5075487;28;20055;-66
2022/03/15 06:35:05;;;;;;;21.52;11.27;;;;;;;6.40;83.18;102591.66;5093688;28;20419;-66
2022/03/15 06:37:31;;;;;;;34.67;11.57;;;;;;;6.41;83.26;102585.59;5093590;28;20028;-68
2022/03/15 06:39:56;;;;;;;25.40;11.82;;;;;;;6.33;83.61;102581.03;5074289;28;20027;-67
2022/03/15 06:42:22;;;;;;;28.25;12.10;;;;;;;6.37;83.69;102581.63;5091543;28;20053;-67
2022/03/15 06:44:48;;;;;;;25.25;11.60;;;;;;;6.40;83.27;102585.72;5091982;28;20515;-68
2022/03/15 06:47:13;;;;;;;28.38;11.57;;;;;;;6.32;83.76;102574.25;5093280;28;20099;-67
2022/03/15 06:49:39;;;;;;;23.13;12.88;;;;;;;6.39;84.07;102578.94;5074791;28;20056;-68
2022/03/15 06:52:04;;;;;;;21.75;12.00;;;;;;;6.46;84.40;102585.25;5093445;28;20142;-67
2022/03/15 06:54:30;;;;;;;27.20;12.75;;;;;;;6.49;83.87;102567.03;5093397;28;20507;-66
2022/03/15 06:56:58;;;;;;;25.42;12.10;;;;;;;6.55;83.99;102571.72;5074926;28;20039;-67
2022/03/15 06:59:24;;;;;;;30.45;12.70;;;;;;;6.53;83.83;102560.72;5076446;28;20395;-75
2022/03/15 07:01:50;;;;;;;28.15;11.95;;;;;;;6.43;84.44;102575.22;5080764;28;20405;-76
2022/03/15 07:04:18;;;;;;;23.52;13.32;;;;;;;6.55;84.17;102561.44;5080219;28;20390;-76
2022/03/15 07:06:45;;;;;;;31.95;14.52;;;;;;;6.69;83.77;102562.97;5094990;28;20055;-75
2022/03/15 07:09:10;;;;;;;28.15;14.00;;;;;;;6.62;83.63;102554.91;5093690;28;20056;-75
2022/03/15 07:11:36;;;;;;;31.42;13.60;;;;;;;6.78;83.61;102568.19;5093313;28;20062;-77
2022/03/15 07:14:03;;;;;;;27.17;13.70;;;;;;;6.74;84.17;102571.13;5093206;28;20058;-78
2022/03/15 07:16:28;;;;;;;30.45;13.82;;;;;;;6.72;84.10;102562.72;5074861;28;20028;-74
2022/03/15 07:18:54;;;;;;;27.88;14.00;;;;;;;6.70;84.23;102567.16;5093030;28;20729;-75
2022/03/15 07:21:19;;;;;;;29.92;14.43;;;;;;;6.79;83.94;102563.91;5074790;28;20031;-76
2022/03/15 07:23:44;;;;;;;28.45;14.57;;;;;;;6.84;84.27;102564.34;5092898;28;20021;-78
2022/03/15 07:26:09;;;;;;;33.83;14.77;;;;;;;6.86;83.82;102559.09;5092696;28;20101;-75
2022/03/15 07:28:35;;;;;;;32.88;15.00;;;;;;;6.75;83.80;102550.44;5092101;28;20020;-76
2022/03/15 07:31:00;;;;;;;35.35;16.10;;;;;;;6.95;83.70;102560.94;5075133;28;20020;-75
2022/03/15 07:33:25;;;;;;;25.58;15.13;;;;;;;6.97;82.95;102559.06;5093099;28;20514;-76
2022/03/15 07:35:51;;;;;;;34.90;15.50;;;;;;;6.92;83.87;102561.19;5074882;28;20013;-77
2022/03/15 07:38:17;;;;;;;32.65;16.30;;;;;;;6.88;83.85;102552.09;5074815;28;20437;-76
2022/03/15 07:40:44;;;;;;;36.72;16.42;;;;;;;6.99;83.42;102558.03;5074646;28;20040;-76
2022/03/15 07:43:10;;;;;;;34.42;16.40;;;;;;;7.05;84.02;102561.88;5091667;28;20028;-77
2022/03/15 07:45:36;;;;;;;30.08;17.17;;;;;;;7.08;83.46;102559.06;5091383;28;20031;-76
2022/03/15 07:48:01;;;;;;;34.92;17.08;;;;;;;7.09;83.18;102552.16;5073606;28;20478;-74
2022/03/15 07:50:26;;;;;;;33.88;16.73;;;;;;;7.12;83.37;102554.50;5073680;28;20027;-79
2022/03/15 07:52:53;;;;;;;35.85;16.65;;;;;;;7.30;82.96;102554.78;5074263;28;20366;-77
2022/03/15 07:55:21;;;;;;;31.95;17.08;;;;;;;7.37;82.62;102569.63;5091973;28;20035;-76
2022/03/15 07:57:47;;;;;;;40.63;17.92;;;;;;;7.51;81.77;102560.81;5092343;28;20038;-76
2022/03/15 08:00:13;;;;;;;38.00;18.17;;;;;;;7.46;80.93;102560.34;5092466;28;20024;-76
2022/03/15 08:02:39;;;;;;;37.10;18.65;;;;;;;7.64;81.59;102565.75;5073087;28;20058;-75
2022/03/15 08:05:04;;;;;;;42.20;17.38;;;;;;;7.62;81.68;102560.75;5090935;28;20016;-78
2022/03/15 08:07:30;;;;;;;40.50;18.25;;;;;;;7.69;80.65;102556.72;5092479;28;20039;-77
2022/03/15 08:09:55;;;;;;;35.85;18.45;;;;;;;7.63;81.26;102557.22;5074343;28;20059;-76
2022/03/15 08:12:21;;;;;;;36.17;17.60;;;;;;;7.62;80.56;102565.06;5092102;28;20054;-77
2022/03/15 08:14:48;;;;;;;38.22;17.83;;;;;;;7.73;81.89;102567.59;5074027;28;20122;-75
2022/03/15 08:17:14;;;;;;;35.30;17.92;;;;;;;7.42;81.89;102552.06;5074309;28;20039;-76
2022/03/15 08:19:39;;;;;;;36.95;19.33;;;;;;;7.51;82.09;102565.09;5078625;28;20428;-76
2022/03/15 08:22:05;;;;;;;40.20;18.85;;;;;;;7.50;82.65;102559.16;5078497;28;20041;-77
2022/03/15 08:24:30;;;;;;;43.22;19.10;;;;;;;7.29;83.42;102560.88;5077382;28;20364;-76
2022/03/15 08:27:02;;;;;;;40.60;18.48;;;;;;;7.43;83.01;102550.31;5076962;28;20164;-73
2022/03/15 08:29:29;;;;;;;37.20;18.43;;;;;;;7.60;82.27;102560.06;5075932;28;20028;-75
2022/03/15 08:31:54;;;;;;;33.03;17.40;;;;;;;7.73;81.94;102548.75;5075897;28;20023;-77
2022/03/15 08:34:19;;;;;;;28.67;16.38;;;;;;;7.76;80.59;102564.75;5095546;28;20455;-76
2022/03/15 08:36:45;;;;;;;33.92;16.52;;;;;;;7.79;80.44;102555.97;5095784;28;20024;-76
2022/03/15 08:39:10;;;;;;;32.13;16.40;;;;;;;7.83;80.67;102558.19;5077682;28;20049;-77
2022/03/15 08:41:35;;;;;;;32.25;16.40;;;;;;;7.88;80.49;102565.50;5077101;28;20102;-76
2022/03/15 08:44:02;;;;;;;31.00;16.15;;;;;;;7.85;80.43;102555.47;5094318;28;20103;-74
2022/03/15 08:46:28;;;;;;;31.08;16.35;;;;;;;7.83;80.02;102545.31;5095070;28;20429;-76
2022/03/15 08:48:54;;;;;;;26.08;14.95;;;;;;;7.84;80.77;102549.50;5094927;28;20048;-76
2022/03/15 08:51:20;;;;;;;28.52;14.02;;;;;;;8.10;79.68;102555.09;5077197;28;20028;-76
2022/03/15 08:53:46;;;;;;;29.98;15.32;;;;;;;7.95;78.95;102553.78;5077383;28;20383;-76
2022/03/15 08:56:11;;;;;;;38.08;15.43;;;;;;;7.90;79.25;102545.63;5095451;28;20020;-76
2022/03/15 08:58:36;;;;;;;27.30;14.23;;;;;;;8.07;79.10;102545.06;5095562;28;20112;-76
2022/03/15 09:01:02;;;;;;;29.00;13.95;;;;;;;8.33;78.56;102547.22;5095316;28;20412;-76
2022/03/15 09:03:27;;;;;;;28.00;13.75;;;;;;;8.40;77.65;102547.53;5077148;28;20026;-78
2022/03/15 09:05:52;;;;;;;25.40;14.07;;;;;;;8.45;77.13;102542.81;5095227;28;20115;-74
2022/03/15 09:08:18;;;;;;;29.40;14.88;;;;;;;8.30;78.17;102545.72;5076963;28;20059;-76
2022/03/15 09:10:45;;;;;;;23.42;13.88;;;;;;;8.56;77.57;102532.41;5095933;28;20035;-75
2022/03/15 09:13:11;;;;;;;26.60;14.27;;;;;;;8.56;76.02;102529.84;5095675;28;20028;-74
2022/03/15 09:15:37;;;;;;;29.45;14.18;;;;;;;8.74;75.56;102535.19;5076910;28;20027;-74
2022/03/15 09:18:03;;;;;;;36.72;14.10;;;;;;;8.81;75.27;102534.53;5076789;28;20417;-74
2022/03/15 09:20:29;;;;;;;25.40;13.65;;;;;;;8.85;74.41;102536.84;5076746;28;20459;-76
2022/03/15 09:22:54;;;;;;;27.23;13.38;;;;;;;8.84;75.39;102532.66;5095207;28;20024;-75
2022/03/15 09:25:20;;;;;;;28.63;13.40;;;;;;;8.89;74.33;102531.31;5076449;28;20035;-75
2022/03/15 09:27:47;;;;;;;33.63;14.40;;;;;;;8.64;74.88;102531.78;5092170;28;20027;-73
2022/03/15 09:30:13;;;;;;;30.42;13.45;;;;;;;8.85;74.62;102535.06;5094105;28;20386;-75
2022/03/15 09:32:39;;;;;;;29.52;13.52;;;;;;;8.97;74.87;102525.47;5075284;28;20467;-74
2022/03/15 09:35:04;;;;;;;32.45;13.60;;;;;;;9.14;74.14;102529.16;5094063;28;20051;-76
2022/03/15 09:37:30;;;;;;;30.70;13.27;;;;;;;9.35;72.70;102522.09;5094240;28;20153;-75
2022/03/15 09:39:57;;;;;;;20.67;12.10;;;;;;;9.41;72.64;102521.56;5095232;28;20431;-75
2022/03/15 09:42:24;;;;;;;20.85;12.60;;;;;;;9.45;71.87;102525.47;5094739;28;20470;-76
2022/03/15 09:44:51;;;;;;;28.95;13.38;;;;;;;9.79;71.60;102519.88;5094628;28;20028;-76
2022/03/15 09:47:17;;;;;;;30.67;12.77;;;;;;;9.83;70.63;102515.25;5076752;28;20031;-77
2022/03/15 09:49:45;;;;;;;26.73;12.82;;;;;;;9.92;70.22;102519.56;5094401;28;20048;-76
2022/03/15 09:52:11;;;;;;;25.83;12.43;;;;;;;9.89;69.67;102515.50;5094590;28;20031;-74
2022/03/15 09:54:38;;;;;;;26.98;13.68;;;;;;;10.00;69.62;102513.72;5093386;28;20024;-75
2022/03/15 09:57:05;;;;;;;20.55;11.63;;;;;;;9.89;70.29;102514.69;5093271;28;20029;-75
2022/03/15 09:59:31;;;;;;;23.15;12.63;;;;;;;10.13;69.90;102516.81;5094607;28;20502;-76
2022/03/15 10:01:59;;;;;;;20.90;10.90;;;;;;;10.13;69.04;102511.63;5094515;28;20023;-77
2022/03/15 10:04:25;;;;;;;24.67;11.18;;;;;;;10.13;68.53;102512.44;5094199;28;20435;-76
2022/03/15 10:06:52;;;;;;;26.00;11.27;;;;;;;10.31;68.17;102504.78;5094291;28;20024;-76
2022/03/15 10:09:17;;;;;;;19.73;10.90;;;;;;;10.14;68.34;102497.75;5094137;28;20052;-76
2022/03/15 10:11:43;;;;;;;19.50;10.70;;;;;;;10.45;68.49;102494.94;5092895;28;20168;-77
2022/03/15 10:14:09;;;;;;;25.73;11.10;;;;;;;10.71;66.61;102495.88;5075949;28;20058;-74
2022/03/15 10:16:40;;;;;;;24.65;10.30;;;;;;;10.86;66.26;102487.63;5094053;28;20586;-75
2022/03/15 10:19:08;;;;;;;18.45;10.65;;;;;;;10.37;67.43;102480.94;5074592;28;20024;-76
2022/03/15 10:21:54;;;;;;;22.92;9.52;;;;;;;10.98;65.87;102470.91;5093941;28;20027;-76
2022/03/15 10:24:22;;;;;;;20.58;9.50;;;;;;;11.12;65.26;102472.97;5093972;28;20467;-75
2022/03/15 10:26:51;;;;;;;18.77;9.70;;;;;;;11.15;65.54;102472.66;5094156;28;20483;-75
2022/03/15 10:29:18;;;;;;;17.60;9.32;;;;;;;11.39;64.27;102466.88;5093812;28;20024;-75
2022/03/15 10:31:45;;;;;;;21.35;9.93;;;;;;;11.21;64.30;102468.69;5075571;28;20026;-73
2022/03/15 10:34:12;;;;;;;20.77;10.02;;;;;;;11.34;64.55;102471.69;5093402;28;20057;-76
2022/03/15 10:36:40;;;;;;;20.90;8.80;;;;;;;11.02;64.83;102459.31;5093309;28;20494;-75
2022/03/15 10:39:07;;;;;;;19.05;9.00;;;;;;;11.27;64.47;102452.53;5093814;28;20020;-74
2022/03/15 10:41:43;;;;;;;18.67;8.20;;;;;;;11.29;63.56;102451.44;5093504;28;20031;-75
2022/03/15 10:44:37;;;;;;;16.88;7.70;;;;;;;11.46;62.20;102446.38;5075541;28;20027;-76
2022/03/15 10:47:12;;;;;;;17.05;7.88;;;;;;;11.65;61.76;102446.19;5089771;28;20036;-76
2022/03/15 10:49:55;;;;;;;18.60;7.60;;;;;;;11.60;62.06;102445.81;5093642;28;20048;-76
2022/03/15 10:52:33;;;;;;;19.80;7.50;;;;;;;11.93;62.26;102430.47;5075441;28;20028;-74
2022/03/15 10:55:11;;;;;;;18.63;7.50;;;;;;;11.93;60.86;102428.69;5093855;28;20055;-75
2022/03/15 10:57:47;;;;;;;16.63;7.20;;;;;;;11.86;62.04;102430.28;5092671;28;20066;-77
2022/03/15 11:00:15;;;;;;;14.98;7.10;;;;;;;11.91;60.66;102422.03;5093283;28;20020;-75
2022/03/15 11:02:44;;;;;;;14.60;6.30;;;;;;;11.93;59.95;102417.53;5073457;28;20016;-76
2022/03/15 11:05:10;;;;;;;12.38;5.90;;;;;;;12.07;60.07;102416.94;5072898;28;20028;-75
2022/03/15 11:07:40;;;;;;;16.08;5.85;;;;;;;12.11;59.84;102409.66;5091003;28;20024;-77
2022/03/15 11:10:13;;;;;;;14.77;6.25;;;;;;;12.22;60.18;102413.72;5091854;28;20062;-74
2022/03/15 11:12:52;;;;;;;;;;;;;;;12.61;58.03;102404.41;5092773;28;20023;-74
2022/03/15 11:15:19;;;;;;;9.77;5.20;;;;;;;13.43;56.02;102401.78;5074083;28;19934;-74
2022/03/15 11:17:46;;;;;;;12.93;5.70;;;;;;;13.92;54.45;102398.22;5091881;28;20030;-74